ZF1RC George Town KY current weather conditions

sailwx.info

Wind from 160 at 1 knots gusting 4

Air temperature 27.2° C
Dewpoint 23.7° C

Last reported at 2014-Oct-22 03:50 UTC.
Time now 2014-Oct-22 05:00 UTC

Location: N 19°16' W 081°23'.
View on Google Maps.

See reports from other nearby stations

  
Tides and Currents Weather Stations Pressure Air Temp Water Temp Dewpoint Dewpoint Depression Visibility Wind Speed Wind Dir Waves Ship Positions
date/time (UTC)wind fromknots sea level pressurealtimeterstation pressurevisibilityair tempwater tempwave heightnotes
2014-Oct-22 03:50 160 1 gusting 4 27.2
2014-Oct-22 03:40 157 0 gusting 0 27.2
2014-Oct-22 03:30 136 0 gusting 1 27.2
2014-Oct-22 03:20 022 0 gusting 0 26.7
2014-Oct-22 03:10 049 0 gusting 1 26.7
2014-Oct-22 03:00 139 0 gusting 2 26.1
2014-Oct-22 02:50 170 0 gusting 4 26.1
2014-Oct-22 02:40 138 1 gusting 1 25.6
2014-Oct-22 02:30 090 0 gusting 0 25.6
2014-Oct-22 02:20 091 0 gusting 1 25.0
2014-Oct-22 02:10 161 24.4
2014-Oct-22 02:00 206 0 gusting 7 25.0
2014-Oct-22 01:50 144 0 gusting 0 26.1
2014-Oct-22 01:40 011 25.6
2014-Oct-22 01:30 165 25.0
2014-Oct-22 01:20 172 24.4
2014-Oct-22 01:10 044 0 gusting 17 25.0
2014-Oct-22 01:00 177 0 gusting 1 27.2
2014-Oct-22 00:50 185 0 gusting 0 27.2
2014-Oct-22 00:40 086 0 gusting 4 26.7
2014-Oct-22 00:30 136 1 gusting 2 26.7
2014-Oct-22 00:20 132 2 gusting 6 26.7
2014-Oct-22 00:10 158 0 gusting 0 26.7
2014-Oct-22 00:00 011 27.2
2014-Oct-21 23:50 036 26.7
2014-Oct-21 23:40 001 0 gusting 1 26.7
2014-Oct-21 23:30 123 0 gusting 4 26.7
2014-Oct-21 23:20 168 0 gusting 0 26.1
2014-Oct-21 23:10 024 0 gusting 2 26.7
2014-Oct-21 23:00 090 26.1
2014-Oct-21 22:54 286 26.1
2014-Oct-21 22:50 053 0 gusting 1 26.1
2014-Oct-21 22:40 252 0 gusting 2 25.6
2014-Oct-21 22:30 104 0 gusting 1 25.6
2014-Oct-21 22:20 070 2 gusting 4 25.6
2014-Oct-21 22:10 121 0 gusting 2 25.6
2014-Oct-21 22:00 196 25.6
2014-Oct-21 21:50 103 1 gusting 1 25.0
2014-Oct-21 21:40 015 1 gusting 2 23.9
2014-Oct-21 21:30 177 0 gusting 4 23.9
2014-Oct-21 21:20 152 0 gusting 20 24.4
2014-Oct-21 21:10 189 5 gusting 10 28.3
2014-Oct-21 21:00 202 1 gusting 2 28.9
2014-Oct-21 20:50 115 28.9
2014-Oct-21 20:40 107 1 gusting 5 28.9
2014-Oct-21 20:30 003 29.4
2014-Oct-21 20:20 106 0 gusting 5 30.0
2014-Oct-21 20:10 326 0 gusting 1 30.0
2014-Oct-21 20:00 205 0 gusting 1 30.0
2014-Oct-21 19:50 090 1 gusting 2 30.0
2014-Oct-21 19:40 052 1 gusting 1 30.0
2014-Oct-21 19:30 093 0 gusting 0 30.0
2014-Oct-21 19:20 167 0 gusting 0 30.0
2014-Oct-21 19:10 137 2 gusting 4 30.6
2014-Oct-21 19:00 090 1 gusting 1 30.6
2014-Oct-21 18:50 062 30.0
2014-Oct-21 18:40 178 0 gusting 1 30.0
2014-Oct-21 18:30 333 0 gusting 1 30.0
2014-Oct-21 18:20 120 1 gusting 1 29.4
2014-Oct-21 18:10 198 0 gusting 1 29.4
2014-Oct-21 18:00 162 0 gusting 1 29.4
2014-Oct-21 17:50 158 0 gusting 0 29.4
2014-Oct-21 17:40 145 0 gusting 1 28.9
2014-Oct-21 17:30 070 0 gusting 1 28.3
2014-Oct-21 17:20 317 1 gusting 4 27.8
2014-Oct-21 17:10 044 1 gusting 1 27.8
2014-Oct-21 17:00 046 0 gusting 6 28.9
2014-Oct-21 16:50 122 2 gusting 2 28.9
2014-Oct-21 16:40 081 1 gusting 5 28.3
2014-Oct-21 16:30 165 1 gusting 6 27.8
2014-Oct-21 16:20 174 6 gusting 8 27.2
2014-Oct-21 16:10 169 4 gusting 7 26.1
2014-Oct-21 16:00 164 4 gusting 10 25.0
2014-Oct-21 15:50 161 8 gusting 19 26.1
2014-Oct-21 15:40 251 0 gusting 0 29.4
2014-Oct-21 15:30 108 0 gusting 0 29.4
2014-Oct-21 15:20 236 0 gusting 2 29.4
2014-Oct-21 15:10 203 0 gusting 0 29.4
2014-Oct-21 15:00 106 30.0
2014-Oct-21 14:40 228 0 gusting 1 29.4
2014-Oct-21 14:30 231 0 gusting 4 29.4
2014-Oct-21 14:20 234 0 gusting 1 29.4
2014-Oct-21 14:10 173 0 gusting 0 30.0
2014-Oct-21 14:00 137 1 gusting 2 30.0
2014-Oct-21 13:40 219 0 gusting 1 29.4
2014-Oct-21 13:30 212 1 gusting 7 28.9
2014-Oct-21 13:20 138 0 gusting 2 28.3
2014-Oct-21 13:10 060 28.3
2014-Oct-21 13:00 078 27.8
2014-Oct-21 12:50 215 27.8
2014-Oct-21 12:40 194 0 gusting 2 27.8
2014-Oct-21 12:30 138 0 gusting 0 27.2
2014-Oct-21 12:20 123 26.7
2014-Oct-21 12:10 234 26.1
2014-Oct-21 12:00 218 25.6
2014-Oct-21 11:50 050 25.6
2014-Oct-21 11:40 161 0 gusting 0 25.0
2014-Oct-21 11:30 240 0 gusting 1 23.9
2014-Oct-21 11:20 106 23.3
2014-Oct-21 11:10 092 3 gusting 6 23.9
2014-Oct-21 11:00 048 1 gusting 6 26.7
2014-Oct-21 10:50 119 0 gusting 1 27.8
2014-Oct-21 10:40 190 27.8
2014-Oct-21 10:30 038 27.8
2014-Oct-21 10:20 233 27.8
2014-Oct-21 10:10 153 27.8
2014-Oct-21 10:00 275 27.8
2014-Oct-21 09:50 202 27.8
2014-Oct-21 09:40 219 0 gusting 0 27.8
2014-Oct-21 09:30 147 1 gusting 1 27.8
2014-Oct-21 09:20 176 0 gusting 0 27.8
2014-Oct-21 09:10 137 0 gusting 0 27.2
2014-Oct-21 09:00 211 0 gusting 0 27.2
2014-Oct-21 08:50 006 0 gusting 0 27.2
2014-Oct-21 08:40 199 0 gusting 0 27.2
2014-Oct-21 08:30 033 27.2
2014-Oct-21 08:20 092 27.2
2014-Oct-21 08:10 128 27.8
2014-Oct-21 08:00 196 0 gusting 1 27.8
2014-Oct-21 07:50 048 0 gusting 0 27.8
2014-Oct-21 07:40 098 27.2
2014-Oct-21 07:30 093 0 gusting 1 27.8
2014-Oct-21 07:20 093 2 gusting 2 27.8
2014-Oct-21 07:10 019 0 gusting 0 27.2
2014-Oct-21 07:00 007 0 gusting 1 27.8
2014-Oct-21 06:50 196 0 gusting 0 27.8
2014-Oct-21 06:40 123 27.8
2014-Oct-21 06:30 070 0 gusting 2 27.2
2014-Oct-21 06:20 106 0 gusting 4 27.2
2014-Oct-21 06:10 088 2 gusting 5 26.7
2014-Oct-21 06:00 100 4 gusting 5 26.1
2014-Oct-21 05:50 097 4 gusting 5 26.1
2014-Oct-21 05:40 092 3 gusting 5 26.7
2014-Oct-21 05:30 093 4 gusting 6 26.7
2014-Oct-21 05:20 117 1 gusting 5 26.7
2014-Oct-21 05:10 092 5 gusting 6 27.2
2014-Oct-21 05:00 114 1 gusting 5 27.8
2014-Oct-21 04:50 253 0 gusting 1 27.8
2014-Oct-21 04:40 130 1 gusting 1 27.8
2014-Oct-21 04:30 126 2 gusting 2 27.8
2014-Oct-21 04:20 108 2 gusting 8 27.8
2014-Oct-21 04:10 060 2 gusting 5 27.8
2014-Oct-21 04:00 143 4 gusting 5 27.8
2014-Oct-21 03:50 084 1 gusting 5 27.8
2014-Oct-21 03:40 087 1 gusting 2 27.8
2014-Oct-21 03:30 156 4 gusting 11 27.8
2014-Oct-21 03:20 182 27.8
2014-Oct-21 03:10 142 0 gusting 6 27.8
2014-Oct-21 03:00 191 0 gusting 1 27.8
2014-Oct-21 02:50 326 27.8
2014-Oct-21 02:40 122 4 gusting 6 27.8
2014-Oct-21 02:30 178 27.8
2014-Oct-21 02:20 131 27.8
2014-Oct-21 02:10 085 1 gusting 5 27.8
2014-Oct-21 02:00 046 0 gusting 4 27.8
2014-Oct-21 01:50 113 3 gusting 4 27.8
2014-Oct-21 01:40 234 0 gusting 4 27.8
2014-Oct-21 01:30 166 2 gusting 4 27.8
2014-Oct-21 01:20 143 2 gusting 4 27.8
2014-Oct-21 01:10 091 1 gusting 2 27.8
2014-Oct-21 01:00 077 1 gusting 5 27.8
2014-Oct-21 00:50 112 2 gusting 6 27.8
2014-Oct-21 00:40 185 0 gusting 4 27.8
2014-Oct-21 00:30 179 27.8
2014-Oct-21 00:20 101 1 gusting 2 27.8
2014-Oct-21 00:10 095 1 gusting 5 27.8
2014-Oct-21 00:00 060 1 gusting 4 27.8
2014-Oct-20 23:50 154 4 gusting 4 27.8
2014-Oct-20 23:40 142 1 gusting 6 27.8
2014-Oct-20 23:30 257 0 gusting 6 27.8
2014-Oct-20 23:20 112 0 gusting 5 27.8
2014-Oct-20 23:10 117 1 gusting 2 27.8
2014-Oct-20 23:00 075 1 gusting 4 28.3
2014-Oct-20 22:54 111 4 gusting 6 28.3
2014-Oct-20 22:50 089 3 gusting 5 28.3
2014-Oct-20 22:40 048 28.3
2014-Oct-20 22:30 093 1 gusting 6 28.3
2014-Oct-20 22:20 148 2 gusting 5 28.9
2014-Oct-20 22:10 135 0 gusting 4 28.9
2014-Oct-20 22:00 101 0 gusting 4 29.4
2014-Oct-20 21:50 168 2 gusting 8 29.4
2014-Oct-20 21:40 108 6 gusting 7 30.0
2014-Oct-20 21:30 054 30.0
2014-Oct-20 21:20 143 1 gusting 4 29.4
2014-Oct-20 21:10 084 1 gusting 4 29.4
2014-Oct-20 21:00 100 2 gusting 4 30.6
2014-Oct-20 20:50 194 1 gusting 6 30.6
2014-Oct-20 20:40 216 0 gusting 4 30.6
2014-Oct-20 20:30 059 30.6
2014-Oct-20 20:20 086 0 gusting 2 30.6
2014-Oct-20 20:10 119 1 gusting 5 30.6
2014-Oct-20 20:00 098 4 gusting 7 30.6
2014-Oct-20 19:50 053 4 gusting 5 30.6
2014-Oct-20 19:40 099 0 gusting 7 31.1
2014-Oct-20 19:30 269 0 gusting 11 30.6
2014-Oct-20 19:20 079 2 gusting 6 30.6
2014-Oct-20 19:10 123 2 gusting 5 30.6
2014-Oct-20 19:00 047 0 gusting 6 31.1
2014-Oct-20 18:50 139 4 gusting 4 31.1
2014-Oct-20 18:40 117 31.1
2014-Oct-20 18:30 143 0 gusting 2 31.7
2014-Oct-20 18:20 348 31.1
2014-Oct-20 18:10 088 0 gusting 2 31.1
2014-Oct-20 18:00 137 0 gusting 0 31.1
2014-Oct-20 17:50 127 1 gusting 1 31.1
2014-Oct-20 17:40 062 0 gusting 2 31.1
2014-Oct-20 17:30 066 0 gusting 5 31.1
2014-Oct-20 17:20 071 1 gusting 2 31.1
2014-Oct-20 17:10 116 0 gusting 1 31.1
2014-Oct-20 17:00 052 30.6
2014-Oct-20 16:50 100 0 gusting 1 30.6
2014-Oct-20 16:40 085 30.6
2014-Oct-20 16:30 178 0 gusting 0 30.6
2014-Oct-20 16:20 053 30.6
2014-Oct-20 16:10 137 0 gusting 0 30.6
2014-Oct-20 16:00 066 0 gusting 1 31.1
2014-Oct-20 15:50 254 0 gusting 0 31.1
2014-Oct-20 15:40 099 0 gusting 5 31.1
2014-Oct-20 15:30 142 0 gusting 0 30.6
2014-Oct-20 15:20 004 0 gusting 1 30.6
2014-Oct-20 15:10 109 0 gusting 2 30.6
2014-Oct-20 15:00 141 0 gusting 2 30.6
2014-Oct-20 14:50 208 0 gusting 1 30.6
2014-Oct-20 14:40 087 30.6
2014-Oct-20 14:30 095 0 gusting 1 30.6
2014-Oct-20 14:20 116 0 gusting 0 30.6
2014-Oct-20 14:10 093 0 gusting 0 30.6
2014-Oct-20 14:00 009 1 gusting 2 30.6
2014-Oct-20 13:50 243 30.0
2014-Oct-20 13:40 207 0 gusting 2 29.4
2014-Oct-20 13:30 053 1 gusting 6 28.9
2014-Oct-20 13:20 076 1 gusting 2 28.3
2014-Oct-20 13:10 166 1 gusting 1 27.8
2014-Oct-20 13:00 090 0 gusting 1 27.8
2014-Oct-20 12:50 098 1 gusting 4 27.8
2014-Oct-20 12:40 143 1 gusting 6 27.8
2014-Oct-20 12:30 117 3 gusting 5 27.2
2014-Oct-20 12:20 110 1 gusting 5 26.7
2014-Oct-20 12:10 125 5 gusting 6 26.7
2014-Oct-20 12:00 100 2 gusting 4 26.1
2014-Oct-20 11:50 064 3 gusting 4 26.1
2014-Oct-20 11:40 098 4 gusting 4 26.1
2014-Oct-20 11:30 101 1 gusting 4 26.1
2014-Oct-20 11:20 137 2 gusting 2 25.6
2014-Oct-20 11:10 089 1 gusting 4 25.6
2014-Oct-20 11:00 106 2 gusting 4 25.6
2014-Oct-20 10:50 094 1 gusting 4 25.6
2014-Oct-20 10:40 090 1 gusting 2 25.6
2014-Oct-20 10:30 079 1 gusting 5 25.6
2014-Oct-20 10:20 092 1 gusting 2 25.6
2014-Oct-20 10:10 098 1 gusting 1 25.6
2014-Oct-20 10:00 113 0 gusting 1 25.6
2014-Oct-20 09:50 088 0 gusting 1 25.6
2014-Oct-20 09:40 093 2 gusting 2 25.6
2014-Oct-20 09:30 064 0 gusting 2 25.6
2014-Oct-20 09:20 052 1 gusting 1 25.6
2014-Oct-20 09:10 086 1 gusting 1 25.6
2014-Oct-20 09:00 098 1 gusting 1 25.6
2014-Oct-20 08:50 097 2 gusting 2 25.6
2014-Oct-20 08:40 063 1 gusting 1 25.6
2014-Oct-20 08:30 080 1 gusting 1 25.6
2014-Oct-20 08:20 100 0 gusting 1 25.6
2014-Oct-20 08:10 092 0 gusting 0 26.1
2014-Oct-20 08:00 084 1 gusting 2 26.1
2014-Oct-20 07:50 096 1 gusting 4 26.1
2014-Oct-20 07:40 094 2 gusting 2 26.1
2014-Oct-20 07:30 060 0 gusting 2 26.7
2014-Oct-20 07:20 085 1 gusting 2 26.7
2014-Oct-20 07:10 071 1 gusting 4 26.7
2014-Oct-20 07:00 211 0 gusting 1 26.1
2014-Oct-20 06:50 106 0 gusting 7 26.1
2014-Oct-20 06:40 098 2 gusting 2 25.6
2014-Oct-20 06:30 099 1 gusting 1 26.1
2014-Oct-20 06:20 067 1 gusting 2 26.1
2014-Oct-20 06:10 068 2 gusting 2 26.1
2014-Oct-20 06:00 105 1 gusting 2 26.1
2014-Oct-20 05:50 115 1 gusting 2 25.6
2014-Oct-20 05:40 124 0 gusting 2 26.1
2014-Oct-20 05:30 095 1 gusting 1 26.1
2014-Oct-20 05:20 094 0 gusting 2 26.1
2014-Oct-20 05:10 095 1 gusting 1 25.6
2014-Oct-20 05:00 096 1 gusting 2 25.6